sensor_id;sensor_type;location;lat;lon;timestamp;P1;durP1;ratioP1;P2;durP2;ratioP2
69789;SDS011;57064;52.046;4.800;2023-05-10T00:02:13;94.07;;;31.77;;
69789;SDS011;57064;52.046;4.800;2023-05-10T00:04:39;89.25;;;31.02;;
69789;SDS011;57064;52.046;4.800;2023-05-10T00:07:05;94.85;;;31.80;;
69789;SDS011;57064;52.046;4.800;2023-05-10T00:09:31;102.97;;;31.27;;
69789;SDS011;57064;52.046;4.800;2023-05-10T00:11:57;96.20;;;30.73;;
69789;SDS011;57064;52.046;4.800;2023-05-10T00:14:23;91.60;;;29.88;;
69789;SDS011;57064;52.046;4.800;2023-05-10T00:16:50;91.15;;;30.10;;
69789;SDS011;57064;52.046;4.800;2023-05-10T00:19:16;100.82;;;31.52;;
69789;SDS011;57064;52.046;4.800;2023-05-10T00:21:42;93.78;;;29.73;;
69789;SDS011;57064;52.046;4.800;2023-05-10T00:24:08;100.53;;;31.33;;
69789;SDS011;57064;52.046;4.800;2023-05-10T00:26:34;101.20;;;31.90;;
69789;SDS011;57064;52.046;4.800;2023-05-10T00:29:00;99.05;;;30.10;;
69789;SDS011;57064;52.046;4.800;2023-05-10T00:31:26;109.38;;;30.92;;
69789;SDS011;57064;52.046;4.800;2023-05-10T00:33:52;109.88;;;30.40;;
69789;SDS011;57064;52.046;4.800;2023-05-10T00:36:18;120.28;;;30.88;;
69789;SDS011;57064;52.046;4.800;2023-05-10T00:38:44;103.10;;;31.67;;
69789;SDS011;57064;52.046;4.800;2023-05-10T00:41:11;120.40;;;31.00;;
69789;SDS011;57064;52.046;4.800;2023-05-10T00:43:37;108.53;;;29.83;;
69789;SDS011;57064;52.046;4.800;2023-05-10T00:46:04;97.95;;;30.77;;
69789;SDS011;57064;52.046;4.800;2023-05-10T00:48:30;100.68;;;30.40;;
69789;SDS011;57064;52.046;4.800;2023-05-10T00:50:57;101.45;;;29.30;;
69789;SDS011;57064;52.046;4.800;2023-05-10T00:53:23;104.72;;;29.80;;
69789;SDS011;57064;52.046;4.800;2023-05-10T00:55:50;109.40;;;30.75;;
69789;SDS011;57064;52.046;4.800;2023-05-10T00:58:16;105.78;;;30.15;;
69789;SDS011;57064;52.046;4.800;2023-05-10T01:00:42;122.35;;;32.08;;
69789;SDS011;57064;52.046;4.800;2023-05-10T01:03:10;123.18;;;32.58;;
69789;SDS011;57064;52.046;4.800;2023-05-10T01:05:37;125.60;;;32.85;;
69789;SDS011;57064;52.046;4.800;2023-05-10T01:08:03;132.45;;;33.30;;
69789;SDS011;57064;52.046;4.800;2023-05-10T01:10:31;125.50;;;32.65;;
69789;SDS011;57064;52.046;4.800;2023-05-10T01:12:57;116.20;;;31.55;;
69789;SDS011;57064;52.046;4.800;2023-05-10T01:15:25;132.88;;;35.65;;
69789;SDS011;57064;52.046;4.800;2023-05-10T01:17:52;117.82;;;33.92;;
69789;SDS011;57064;52.046;4.800;2023-05-10T01:20:19;124.32;;;33.53;;
69789;SDS011;57064;52.046;4.800;2023-05-10T01:33:59;153.75;;;41.55;;
69789;SDS011;57064;52.046;4.800;2023-05-10T01:39:44;151.15;;;39.47;;
69789;SDS011;57064;52.046;4.800;2023-05-10T01:42:23;136.98;;;39.83;;
69789;SDS011;57064;52.046;4.800;2023-05-10T01:44:56;139.73;;;37.65;;
69789;SDS011;57064;52.046;4.800;2023-05-10T01:50:09;153.00;;;39.78;;
69789;SDS011;57064;52.046;4.800;2023-05-10T01:52:46;169.75;;;40.40;;
69789;SDS011;57064;52.046;4.800;2023-05-10T01:55:20;150.75;;;40.25;;
69789;SDS011;57064;52.046;4.800;2023-05-10T01:57:50;167.32;;;42.05;;
69789;SDS011;57064;52.046;4.800;2023-05-10T02:00:19;159.20;;;39.55;;
69789;SDS011;57064;52.046;4.800;2023-05-10T02:02:47;152.90;;;36.75;;
69789;SDS011;57064;52.046;4.800;2023-05-10T02:05:15;146.88;;;37.97;;
69789;SDS011;57064;52.046;4.800;2023-05-10T02:07:42;141.93;;;35.83;;
69789;SDS011;57064;52.046;4.800;2023-05-10T02:10:10;146.23;;;35.10;;
69789;SDS011;57064;52.046;4.800;2023-05-10T02:12:37;140.13;;;37.38;;
69789;SDS011;57064;52.046;4.800;2023-05-10T02:15:08;124.97;;;33.42;;
69789;SDS011;57064;52.046;4.800;2023-05-10T02:17:37;120.15;;;33.10;;
69789;SDS011;57064;52.046;4.800;2023-05-10T02:20:04;123.95;;;33.83;;
69789;SDS011;57064;52.046;4.800;2023-05-10T02:22:32;130.73;;;35.95;;
69789;SDS011;57064;52.046;4.800;2023-05-10T02:25:00;130.00;;;35.55;;
69789;SDS011;57064;52.046;4.800;2023-05-10T02:27:27;150.30;;;37.63;;
69789;SDS011;57064;52.046;4.800;2023-05-10T02:29:54;146.60;;;39.45;;
69789;SDS011;57064;52.046;4.800;2023-05-10T02:32:21;150.73;;;39.92;;
69789;SDS011;57064;52.046;4.800;2023-05-10T02:34:48;132.80;;;36.40;;
69789;SDS011;57064;52.046;4.800;2023-05-10T02:37:18;126.75;;;37.05;;
69789;SDS011;57064;52.046;4.800;2023-05-10T02:39:49;146.35;;;40.83;;
69789;SDS011;57064;52.046;4.800;2023-05-10T02:42:16;132.73;;;36.75;;
69789;SDS011;57064;52.046;4.800;2023-05-10T02:44:47;143.52;;;40.35;;
69789;SDS011;57064;52.046;4.800;2023-05-10T02:47:16;162.00;;;44.08;;
69789;SDS011;57064;52.046;4.800;2023-05-10T02:49:43;154.75;;;42.20;;
69789;SDS011;57064;52.046;4.800;2023-05-10T02:52:09;161.65;;;40.22;;
69789;SDS011;57064;52.046;4.800;2023-05-10T02:54:40;175.10;;;46.67;;
69789;SDS011;57064;52.046;4.800;2023-05-10T02:57:11;165.35;;;42.80;;
69789;SDS011;57064;52.046;4.800;2023-05-10T02:59:46;182.70;;;43.20;;
69789;SDS011;57064;52.046;4.800;2023-05-10T03:02:12;162.40;;;42.92;;
69789;SDS011;57064;52.046;4.800;2023-05-10T03:04:38;156.57;;;40.40;;
69789;SDS011;57064;52.046;4.800;2023-05-10T03:07:05;173.20;;;42.47;;
69789;SDS011;57064;52.046;4.800;2023-05-10T03:09:31;182.45;;;50.35;;
69789;SDS011;57064;52.046;4.800;2023-05-10T03:17:23;131.18;;;37.05;;
69789;SDS011;57064;52.046;4.800;2023-05-10T03:20:10;136.45;;;39.78;;
69789;SDS011;57064;52.046;4.800;2023-05-10T03:22:43;134.80;;;37.00;;
69789;SDS011;57064;52.046;4.800;2023-05-10T03:25:16;144.90;;;37.65;;
69789;SDS011;57064;52.046;4.800;2023-05-10T03:27:45;139.25;;;39.75;;
69789;SDS011;57064;52.046;4.800;2023-05-10T03:30:12;194.02;;;53.30;;
69789;SDS011;57064;52.046;4.800;2023-05-10T03:32:39;161.95;;;43.00;;
69789;SDS011;57064;52.046;4.800;2023-05-10T03:35:08;161.85;;;47.47;;
69789;SDS011;57064;52.046;4.800;2023-05-10T03:37:35;182.23;;;50.28;;
69789;SDS011;57064;52.046;4.800;2023-05-10T03:40:02;165.68;;;47.08;;
69789;SDS011;57064;52.046;4.800;2023-05-10T03:42:29;161.02;;;44.85;;
69789;SDS011;57064;52.046;4.800;2023-05-10T03:44:55;133.68;;;38.88;;
69789;SDS011;57064;52.046;4.800;2023-05-10T03:47:21;159.50;;;44.22;;
69789;SDS011;57064;52.046;4.800;2023-05-10T03:49:47;110.97;;;36.47;;
69789;SDS011;57064;52.046;4.800;2023-05-10T03:52:13;120.90;;;36.13;;
69789;SDS011;57064;52.046;4.800;2023-05-10T03:54:40;137.27;;;40.67;;
69789;SDS011;57064;52.046;4.800;2023-05-10T03:57:06;112.68;;;33.30;;
69789;SDS011;57064;52.046;4.800;2023-05-10T03:59:32;138.60;;;45.25;;
69789;SDS011;57064;52.046;4.800;2023-05-10T04:01:58;141.40;;;45.92;;
69789;SDS011;57064;52.046;4.800;2023-05-10T04:04:24;116.53;;;37.50;;
69789;SDS011;57064;52.046;4.800;2023-05-10T04:06:51;148.38;;;47.35;;
69789;SDS011;57064;52.046;4.800;2023-05-10T04:09:17;154.15;;;50.17;;
69789;SDS011;57064;52.046;4.800;2023-05-10T04:11:43;135.38;;;43.58;;
69789;SDS011;57064;52.046;4.800;2023-05-10T04:14:09;135.88;;;45.03;;
69789;SDS011;57064;52.046;4.800;2023-05-10T04:16:35;121.25;;;43.15;;
69789;SDS011;57064;52.046;4.800;2023-05-10T04:19:01;129.73;;;40.42;;
69789;SDS011;57064;52.046;4.800;2023-05-10T04:21:28;132.25;;;46.25;;
69789;SDS011;57064;52.046;4.800;2023-05-10T04:23:55;126.20;;;41.58;;
69789;SDS011;57064;52.046;4.800;2023-05-10T04:26:21;101.70;;;36.38;;
69789;SDS011;57064;52.046;4.800;2023-05-10T04:28:47;104.25;;;34.63;;
69789;SDS011;57064;52.046;4.800;2023-05-10T04:31:13;104.05;;;33.05;;
69789;SDS011;57064;52.046;4.800;2023-05-10T04:33:39;122.88;;;43.42;;
69789;SDS011;57064;52.046;4.800;2023-05-10T04:36:05;114.45;;;41.03;;
69789;SDS011;57064;52.046;4.800;2023-05-10T04:38:31;116.95;;;42.38;;
69789;SDS011;57064;52.046;4.800;2023-05-10T04:41:16;117.05;;;39.90;;
69789;SDS011;57064;52.046;4.800;2023-05-10T04:43:42;102.40;;;34.42;;
69789;SDS011;57064;52.046;4.800;2023-05-10T04:46:08;121.00;;;41.35;;
69789;SDS011;57064;52.046;4.800;2023-05-10T04:48:34;126.28;;;43.70;;
69789;SDS011;57064;52.046;4.800;2023-05-10T04:51:00;147.75;;;52.33;;
69789;SDS011;57064;52.046;4.800;2023-05-10T04:53:26;142.02;;;54.03;;
69789;SDS011;57064;52.046;4.800;2023-05-10T04:55:52;119.03;;;46.83;;
69789;SDS011;57064;52.046;4.800;2023-05-10T04:58:18;126.38;;;46.05;;
69789;SDS011;57064;52.046;4.800;2023-05-10T05:00:44;113.38;;;42.85;;
69789;SDS011;57064;52.046;4.800;2023-05-10T05:03:10;123.18;;;42.08;;
69789;SDS011;57064;52.046;4.800;2023-05-10T05:05:36;127.93;;;43.40;;
69789;SDS011;57064;52.046;4.800;2023-05-10T05:08:02;128.60;;;45.88;;
69789;SDS011;57064;52.046;4.800;2023-05-10T05:10:29;124.63;;;44.03;;
69789;SDS011;57064;52.046;4.800;2023-05-10T05:12:55;112.32;;;37.15;;
69789;SDS011;57064;52.046;4.800;2023-05-10T05:15:21;110.10;;;39.53;;
69789;SDS011;57064;52.046;4.800;2023-05-10T05:17:47;105.70;;;34.35;;
69789;SDS011;57064;52.046;4.800;2023-05-10T05:20:13;113.65;;;39.72;;
69789;SDS011;57064;52.046;4.800;2023-05-10T05:22:39;110.50;;;34.30;;
69789;SDS011;57064;52.046;4.800;2023-05-10T05:25:05;100.95;;;34.72;;
69789;SDS011;57064;52.046;4.800;2023-05-10T05:27:32;95.32;;;27.60;;
69789;SDS011;57064;52.046;4.800;2023-05-10T05:29:58;89.57;;;29.75;;
69789;SDS011;57064;52.046;4.800;2023-05-10T05:32:24;81.15;;;26.52;;
69789;SDS011;57064;52.046;4.800;2023-05-10T05:34:51;77.57;;;27.65;;
69789;SDS011;57064;52.046;4.800;2023-05-10T05:37:18;88.78;;;28.15;;
69789;SDS011;57064;52.046;4.800;2023-05-10T05:39:45;78.70;;;27.17;;
69789;SDS011;57064;52.046;4.800;2023-05-10T05:42:12;75.45;;;25.33;;
69789;SDS011;57064;52.046;4.800;2023-05-10T05:44:39;63.95;;;22.98;;
69789;SDS011;57064;52.046;4.800;2023-05-10T05:47:05;62.92;;;23.55;;
69789;SDS011;57064;52.046;4.800;2023-05-10T05:49:32;66.25;;;23.38;;
69789;SDS011;57064;52.046;4.800;2023-05-10T05:51:58;53.83;;;20.33;;
69789;SDS011;57064;52.046;4.800;2023-05-10T05:54:25;52.88;;;17.77;;
69789;SDS011;57064;52.046;4.800;2023-05-10T05:56:55;50.42;;;17.00;;
69789;SDS011;57064;52.046;4.800;2023-05-10T05:59:22;53.75;;;18.88;;
69789;SDS011;57064;52.046;4.800;2023-05-10T06:01:49;57.10;;;19.85;;
69789;SDS011;57064;52.046;4.800;2023-05-10T06:04:15;49.75;;;18.75;;
69789;SDS011;57064;52.046;4.800;2023-05-10T06:06:41;55.67;;;18.55;;
69789;SDS011;57064;52.046;4.800;2023-05-10T06:09:08;48.25;;;16.40;;
69789;SDS011;57064;52.046;4.800;2023-05-10T06:11:34;50.35;;;20.25;;
69789;SDS011;57064;52.046;4.800;2023-05-10T06:14:01;46.63;;;17.15;;
69789;SDS011;57064;52.046;4.800;2023-05-10T06:16:29;45.47;;;16.70;;
69789;SDS011;57064;52.046;4.800;2023-05-10T06:18:55;49.80;;;16.02;;
69789;SDS011;57064;52.046;4.800;2023-05-10T06:21:21;41.17;;;16.85;;
69789;SDS011;57064;52.046;4.800;2023-05-10T06:23:48;40.58;;;15.00;;
69789;SDS011;57064;52.046;4.800;2023-05-10T06:26:14;32.50;;;13.68;;
69789;SDS011;57064;52.046;4.800;2023-05-10T06:28:40;27.90;;;12.77;;
69789;SDS011;57064;52.046;4.800;2023-05-10T06:31:06;25.02;;;11.98;;
69789;SDS011;57064;52.046;4.800;2023-05-10T06:33:33;23.33;;;11.95;;
69789;SDS011;57064;52.046;4.800;2023-05-10T06:35:59;18.75;;;9.40;;
69789;SDS011;57064;52.046;4.800;2023-05-10T06:38:25;21.88;;;10.43;;
69789;SDS011;57064;52.046;4.800;2023-05-10T06:40:51;20.67;;;9.55;;
69789;SDS011;57064;52.046;4.800;2023-05-10T06:43:17;22.00;;;10.35;;
69789;SDS011;57064;52.046;4.800;2023-05-10T06:45:43;25.45;;;11.10;;
69789;SDS011;57064;52.046;4.800;2023-05-10T06:48:09;20.08;;;9.35;;
69789;SDS011;57064;52.046;4.800;2023-05-10T06:50:35;23.52;;;11.43;;
69789;SDS011;57064;52.046;4.800;2023-05-10T06:53:01;23.90;;;9.93;;
69789;SDS011;57064;52.046;4.800;2023-05-10T06:55:28;22.52;;;9.95;;
69789;SDS011;57064;52.046;4.800;2023-05-10T06:57:54;23.08;;;9.80;;
69789;SDS011;57064;52.046;4.800;2023-05-10T07:00:20;19.42;;;7.30;;
69789;SDS011;57064;52.046;4.800;2023-05-10T07:02:47;13.95;;;6.88;;
69789;SDS011;57064;52.046;4.800;2023-05-10T07:05:13;14.15;;;6.93;;
69789;SDS011;57064;52.046;4.800;2023-05-10T07:07:40;14.55;;;6.20;;
69789;SDS011;57064;52.046;4.800;2023-05-10T07:10:06;14.93;;;7.57;;
69789;SDS011;57064;52.046;4.800;2023-05-10T07:12:34;15.65;;;7.53;;
69789;SDS011;57064;52.046;4.800;2023-05-10T07:15:01;13.77;;;7.15;;
69789;SDS011;57064;52.046;4.800;2023-05-10T07:17:27;13.40;;;7.03;;
69789;SDS011;57064;52.046;4.800;2023-05-10T07:19:53;13.20;;;6.45;;
69789;SDS011;57064;52.046;4.800;2023-05-10T07:22:19;11.77;;;5.93;;
69789;SDS011;57064;52.046;4.800;2023-05-10T07:24:45;11.80;;;5.72;;
69789;SDS011;57064;52.046;4.800;2023-05-10T07:27:11;9.77;;;5.45;;
69789;SDS011;57064;52.046;4.800;2023-05-10T07:29:38;10.50;;;5.70;;
69789;SDS011;57064;52.046;4.800;2023-05-10T07:32:04;9.10;;;4.72;;
69789;SDS011;57064;52.046;4.800;2023-05-10T07:34:30;11.13;;;5.40;;
69789;SDS011;57064;52.046;4.800;2023-05-10T07:36:58;10.60;;;5.35;;
69789;SDS011;57064;52.046;4.800;2023-05-10T07:39:25;9.82;;;5.10;;
69789;SDS011;57064;52.046;4.800;2023-05-10T07:41:52;11.43;;;6.00;;
69789;SDS011;57064;52.046;4.800;2023-05-10T07:44:21;10.60;;;5.18;;
69789;SDS011;57064;52.046;4.800;2023-05-10T07:46:48;11.48;;;6.25;;
69789;SDS011;57064;52.046;4.800;2023-05-10T07:49:14;11.63;;;5.60;;
69789;SDS011;57064;52.046;4.800;2023-05-10T07:51:40;7.30;;;4.60;;
69789;SDS011;57064;52.046;4.800;2023-05-10T07:54:07;9.05;;;4.60;;
69789;SDS011;57064;52.046;4.800;2023-05-10T07:56:33;11.20;;;5.22;;
69789;SDS011;57064;52.046;4.800;2023-05-10T07:59:00;12.02;;;5.38;;
69789;SDS011;57064;52.046;4.800;2023-05-10T08:01:30;9.20;;;5.05;;
69789;SDS011;57064;52.046;4.800;2023-05-10T08:03:57;9.52;;;4.88;;
69789;SDS011;57064;52.046;4.800;2023-05-10T08:06:23;9.93;;;5.45;;
69789;SDS011;57064;52.046;4.800;2023-05-10T08:08:52;8.60;;;4.18;;
69789;SDS011;57064;52.046;4.800;2023-05-10T08:11:19;9.20;;;4.47;;
69789;SDS011;57064;52.046;4.800;2023-05-10T08:13:46;8.63;;;4.78;;
69789;SDS011;57064;52.046;4.800;2023-05-10T08:16:13;8.20;;;3.88;;
69789;SDS011;57064;52.046;4.800;2023-05-10T08:18:39;8.10;;;4.20;;
69789;SDS011;57064;52.046;4.800;2023-05-10T08:21:05;8.45;;;4.32;;
69789;SDS011;57064;52.046;4.800;2023-05-10T08:23:31;6.22;;;3.63;;
69789;SDS011;57064;52.046;4.800;2023-05-10T08:25:58;7.68;;;4.32;;
69789;SDS011;57064;52.046;4.800;2023-05-10T08:28:25;5.18;;;3.75;;
69789;SDS011;57064;52.046;4.800;2023-05-10T08:30:52;8.88;;;4.43;;
69789;SDS011;57064;52.046;4.800;2023-05-10T08:33:18;8.98;;;4.68;;
69789;SDS011;57064;52.046;4.800;2023-05-10T08:35:44;8.18;;;4.72;;
69789;SDS011;57064;52.046;4.800;2023-05-10T08:38:10;9.73;;;5.47;;
69789;SDS011;57064;52.046;4.800;2023-05-10T08:40:37;9.15;;;4.88;;
69789;SDS011;57064;52.046;4.800;2023-05-10T08:43:07;9.30;;;4.93;;
69789;SDS011;57064;52.046;4.800;2023-05-10T08:45:41;8.32;;;4.35;;
69789;SDS011;57064;52.046;4.800;2023-05-10T08:48:10;7.13;;;3.40;;
69789;SDS011;57064;52.046;4.800;2023-05-10T08:50:37;6.35;;;3.78;;
69789;SDS011;57064;52.046;4.800;2023-05-10T08:53:12;8.60;;;4.07;;
69789;SDS011;57064;52.046;4.800;2023-05-10T08:55:38;6.93;;;3.75;;
69789;SDS011;57064;52.046;4.800;2023-05-10T08:58:07;7.93;;;3.85;;
69789;SDS011;57064;52.046;4.800;2023-05-10T09:00:35;6.72;;;3.72;;
69789;SDS011;57064;52.046;4.800;2023-05-10T09:03:02;10.13;;;4.25;;
69789;SDS011;57064;52.046;4.800;2023-05-10T09:05:31;8.07;;;4.47;;
69789;SDS011;57064;52.046;4.800;2023-05-10T09:07:58;7.60;;;4.40;;
69789;SDS011;57064;52.046;4.800;2023-05-10T09:10:27;9.35;;;5.05;;
69789;SDS011;57064;52.046;4.800;2023-05-10T09:12:56;9.07;;;4.45;;
69789;SDS011;57064;52.046;4.800;2023-05-10T09:15:22;13.90;;;6.05;;
69789;SDS011;57064;52.046;4.800;2023-05-10T09:17:49;8.35;;;4.45;;
69789;SDS011;57064;52.046;4.800;2023-05-10T09:20:15;9.40;;;5.03;;
69789;SDS011;57064;52.046;4.800;2023-05-10T09:22:42;8.52;;;4.80;;
69789;SDS011;57064;52.046;4.800;2023-05-10T09:27:41;7.65;;;4.50;;
69789;SDS011;57064;52.046;4.800;2023-05-10T09:30:23;8.50;;;4.40;;
69789;SDS011;57064;52.046;4.800;2023-05-10T09:32:53;10.50;;;5.47;;
69789;SDS011;57064;52.046;4.800;2023-05-10T09:35:21;11.00;;;4.93;;
69789;SDS011;57064;52.046;4.800;2023-05-10T09:37:49;11.07;;;4.90;;
69789;SDS011;57064;52.046;4.800;2023-05-10T09:45:20;9.23;;;4.57;;
69789;SDS011;57064;52.046;4.800;2023-05-10T09:47:50;12.68;;;5.60;;
69789;SDS011;57064;52.046;4.800;2023-05-10T09:50:17;8.80;;;4.40;;
69789;SDS011;57064;52.046;4.800;2023-05-10T09:55:13;9.80;;;4.82;;
69789;SDS011;57064;52.046;4.800;2023-05-10T09:57:40;8.23;;;4.60;;
69789;SDS011;57064;52.046;4.800;2023-05-10T10:00:06;8.57;;;4.22;;
69789;SDS011;57064;52.046;4.800;2023-05-10T10:02:35;8.65;;;4.40;;
69789;SDS011;57064;52.046;4.800;2023-05-10T10:05:01;10.32;;;5.13;;
69789;SDS011;57064;52.046;4.800;2023-05-10T10:07:28;10.70;;;4.93;;
69789;SDS011;57064;52.046;4.800;2023-05-10T10:09:56;7.70;;;4.40;;
69789;SDS011;57064;52.046;4.800;2023-05-10T10:12:23;7.45;;;3.55;;
69789;SDS011;57064;52.046;4.800;2023-05-10T10:14:49;6.88;;;3.63;;
69789;SDS011;57064;52.046;4.800;2023-05-10T10:17:16;6.95;;;4.07;;
69789;SDS011;57064;52.046;4.800;2023-05-10T10:19:44;6.53;;;3.70;;
69789;SDS011;57064;52.046;4.800;2023-05-10T10:22:11;4.85;;;2.42;;
69789;SDS011;57064;52.046;4.800;2023-05-10T10:24:38;5.40;;;3.00;;
69789;SDS011;57064;52.046;4.800;2023-05-10T10:30:22;4.57;;;2.53;;
69789;SDS011;57064;52.046;4.800;2023-05-10T10:33:13;7.20;;;3.65;;
69789;SDS011;57064;52.046;4.800;2023-05-10T10:35:49;5.38;;;3.28;;
69789;SDS011;57064;52.046;4.800;2023-05-10T10:38:17;7.45;;;4.00;;
69789;SDS011;57064;52.046;4.800;2023-05-10T10:40:43;6.00;;;3.83;;
69789;SDS011;57064;52.046;4.800;2023-05-10T10:43:25;6.53;;;3.38;;
69789;SDS011;57064;52.046;4.800;2023-05-10T10:46:11;9.07;;;3.78;;
69789;SDS011;57064;52.046;4.800;2023-05-10T10:48:39;6.22;;;3.67;;
69789;SDS011;57064;52.046;4.800;2023-05-10T10:51:13;4.75;;;3.42;;
69789;SDS011;57064;52.046;4.800;2023-05-10T10:53:39;6.63;;;3.72;;
69789;SDS011;57064;52.046;4.800;2023-05-10T10:56:10;6.60;;;4.05;;
69789;SDS011;57064;52.046;4.800;2023-05-10T10:58:38;6.75;;;3.70;;
69789;SDS011;57064;52.046;4.800;2023-05-10T11:01:09;8.10;;;3.58;;
69789;SDS011;57064;52.046;4.800;2023-05-10T11:03:35;8.13;;;5.07;;
69789;SDS011;57064;52.046;4.800;2023-05-10T11:06:02;11.02;;;6.32;;
69789;SDS011;57064;52.046;4.800;2023-05-10T11:08:30;10.90;;;7.20;;
69789;SDS011;57064;52.046;4.800;2023-05-10T11:13:44;7.72;;;6.25;;
69789;SDS011;57064;52.046;4.800;2023-05-10T11:16:19;8.77;;;6.07;;
69789;SDS011;57064;52.046;4.800;2023-05-10T11:21:44;10.60;;;5.40;;
69789;SDS011;57064;52.046;4.800;2023-05-10T11:24:16;7.95;;;5.88;;
69789;SDS011;57064;52.046;4.800;2023-05-10T11:26:43;11.25;;;6.47;;
69789;SDS011;57064;52.046;4.800;2023-05-10T11:29:09;13.05;;;6.43;;
69789;SDS011;57064;52.046;4.800;2023-05-10T11:31:41;13.23;;;7.35;;
69789;SDS011;57064;52.046;4.800;2023-05-10T11:34:12;16.10;;;7.28;;
69789;SDS011;57064;52.046;4.800;2023-05-10T11:36:59;11.57;;;5.50;;
69789;SDS011;57064;52.046;4.800;2023-05-10T11:39:29;13.82;;;6.55;;
69789;SDS011;57064;52.046;4.800;2023-05-10T11:41:56;15.18;;;6.72;;
69789;SDS011;57064;52.046;4.800;2023-05-10T11:44:23;19.48;;;7.90;;
69789;SDS011;57064;52.046;4.800;2023-05-10T11:46:58;19.98;;;8.73;;
69789;SDS011;57064;52.046;4.800;2023-05-10T11:49:25;21.88;;;10.88;;
69789;SDS011;57064;52.046;4.800;2023-05-10T11:51:51;27.92;;;11.40;;
69789;SDS011;57064;52.046;4.800;2023-05-10T11:54:28;27.83;;;10.60;;
69789;SDS011;57064;52.046;4.800;2023-05-10T11:56:54;27.10;;;10.90;;
69789;SDS011;57064;52.046;4.800;2023-05-10T11:59:20;27.23;;;11.85;;
69789;SDS011;57064;52.046;4.800;2023-05-10T12:01:46;24.85;;;10.43;;
69789;SDS011;57064;52.046;4.800;2023-05-10T12:04:14;24.85;;;12.63;;
69789;SDS011;57064;52.046;4.800;2023-05-10T12:06:40;26.23;;;12.43;;
69789;SDS011;57064;52.046;4.800;2023-05-10T12:09:06;20.98;;;10.70;;
69789;SDS011;57064;52.046;4.800;2023-05-10T12:11:38;27.88;;;11.43;;
69789;SDS011;57064;52.046;4.800;2023-05-10T12:14:05;28.92;;;12.68;;
69789;SDS011;57064;52.046;4.800;2023-05-10T12:16:33;26.75;;;13.27;;
69789;SDS011;57064;52.046;4.800;2023-05-10T12:18:59;26.67;;;14.20;;
69789;SDS011;57064;52.046;4.800;2023-05-10T12:21:26;20.05;;;10.30;;
69789;SDS011;57064;52.046;4.800;2023-05-10T12:23:58;20.92;;;10.40;;
69789;SDS011;57064;52.046;4.800;2023-05-10T12:26:29;27.90;;;11.82;;
69789;SDS011;57064;52.046;4.800;2023-05-10T12:29:01;19.77;;;10.55;;
69789;SDS011;57064;52.046;4.800;2023-05-10T12:34:24;17.92;;;9.40;;
69789;SDS011;57064;52.046;4.800;2023-05-10T12:36:58;26.55;;;10.80;;
69789;SDS011;57064;52.046;4.800;2023-05-10T12:39:24;22.08;;;9.77;;
69789;SDS011;57064;52.046;4.800;2023-05-10T12:41:51;18.17;;;9.43;;
69789;SDS011;57064;52.046;4.800;2023-05-10T12:44:17;16.05;;;8.32;;
69789;SDS011;57064;52.046;4.800;2023-05-10T12:46:44;17.88;;;8.95;;
69789;SDS011;57064;52.046;4.800;2023-05-10T12:49:11;13.88;;;7.32;;
69789;SDS011;57064;52.046;4.800;2023-05-10T12:51:37;16.00;;;6.90;;
69789;SDS011;57064;52.046;4.800;2023-05-10T12:54:03;10.32;;;6.32;;
69789;SDS011;57064;52.046;4.800;2023-05-10T12:56:29;16.00;;;6.43;;
69789;SDS011;57064;52.046;4.800;2023-05-10T12:58:55;13.38;;;7.05;;
69789;SDS011;57064;52.046;4.800;2023-05-10T13:01:21;14.55;;;6.63;;
69789;SDS011;57064;52.046;4.800;2023-05-10T13:03:47;11.68;;;6.25;;
69789;SDS011;57064;52.046;4.800;2023-05-10T13:06:14;12.70;;;6.63;;
69789;SDS011;57064;52.046;4.800;2023-05-10T13:08:40;11.70;;;6.00;;
69789;SDS011;57064;52.046;4.800;2023-05-10T13:11:06;12.60;;;6.55;;
69789;SDS011;57064;52.046;4.800;2023-05-10T13:13:33;11.85;;;5.53;;
69789;SDS011;57064;52.046;4.800;2023-05-10T13:15:59;13.25;;;6.93;;
69789;SDS011;57064;52.046;4.800;2023-05-10T13:18:25;12.35;;;6.40;;
69789;SDS011;57064;52.046;4.800;2023-05-10T13:20:51;10.07;;;5.25;;
69789;SDS011;57064;52.046;4.800;2023-05-10T13:23:19;13.50;;;6.68;;
69789;SDS011;57064;52.046;4.800;2023-05-10T13:25:45;12.02;;;6.25;;
69789;SDS011;57064;52.046;4.800;2023-05-10T13:28:11;11.57;;;5.97;;
69789;SDS011;57064;52.046;4.800;2023-05-10T13:30:37;13.15;;;6.82;;
69789;SDS011;57064;52.046;4.800;2023-05-10T13:33:03;15.57;;;8.00;;
69789;SDS011;57064;52.046;4.800;2023-05-10T13:35:30;14.60;;;7.40;;
69789;SDS011;57064;52.046;4.800;2023-05-10T13:37:56;13.73;;;7.88;;
69789;SDS011;57064;52.046;4.800;2023-05-10T13:40:22;14.05;;;7.15;;
69789;SDS011;57064;52.046;4.800;2023-05-10T13:42:48;16.00;;;9.15;;
69789;SDS011;57064;52.046;4.800;2023-05-10T13:45:14;15.52;;;8.20;;
69789;SDS011;57064;52.046;4.800;2023-05-10T13:47:41;15.15;;;7.03;;
69789;SDS011;57064;52.046;4.800;2023-05-10T13:50:07;15.18;;;8.00;;
69789;SDS011;57064;52.046;4.800;2023-05-10T13:52:33;13.95;;;7.13;;
69789;SDS011;57064;52.046;4.800;2023-05-10T13:54:59;15.43;;;7.53;;
69789;SDS011;57064;52.046;4.800;2023-05-10T13:57:25;14.27;;;7.38;;
69789;SDS011;57064;52.046;4.800;2023-05-10T13:59:51;17.45;;;9.05;;
69789;SDS011;57064;52.046;4.800;2023-05-10T14:02:18;16.30;;;8.88;;
69789;SDS011;57064;52.046;4.800;2023-05-10T14:04:44;16.42;;;8.00;;
69789;SDS011;57064;52.046;4.800;2023-05-10T14:07:12;15.20;;;8.35;;
69789;SDS011;57064;52.046;4.800;2023-05-10T14:09:38;15.95;;;7.43;;
69789;SDS011;57064;52.046;4.800;2023-05-10T14:12:04;14.00;;;8.00;;
69789;SDS011;57064;52.046;4.800;2023-05-10T14:14:30;13.15;;;6.95;;
69789;SDS011;57064;52.046;4.800;2023-05-10T14:16:56;14.30;;;7.80;;
69789;SDS011;57064;52.046;4.800;2023-05-10T14:19:22;13.38;;;7.20;;
69789;SDS011;57064;52.046;4.800;2023-05-10T14:21:48;10.68;;;5.63;;
69789;SDS011;57064;52.046;4.800;2023-05-10T14:24:14;12.93;;;6.25;;
69789;SDS011;57064;52.046;4.800;2023-05-10T14:26:40;12.68;;;6.72;;
69789;SDS011;57064;52.046;4.800;2023-05-10T14:29:06;9.73;;;6.22;;
69789;SDS011;57064;52.046;4.800;2023-05-10T14:31:32;12.80;;;6.57;;
69789;SDS011;57064;52.046;4.800;2023-05-10T14:33:58;9.73;;;5.68;;
69789;SDS011;57064;52.046;4.800;2023-05-10T14:36:25;10.85;;;5.38;;
69789;SDS011;57064;52.046;4.800;2023-05-10T14:38:51;12.15;;;5.65;;
69789;SDS011;57064;52.046;4.800;2023-05-10T14:41:17;9.45;;;5.13;;
69789;SDS011;57064;52.046;4.800;2023-05-10T14:43:43;10.07;;;4.85;;
69789;SDS011;57064;52.046;4.800;2023-05-10T14:46:09;10.02;;;5.20;;
69789;SDS011;57064;52.046;4.800;2023-05-10T14:48:37;9.98;;;5.22;;
69789;SDS011;57064;52.046;4.800;2023-05-10T14:51:03;8.70;;;4.40;;
69789;SDS011;57064;52.046;4.800;2023-05-10T14:53:30;8.82;;;5.10;;
69789;SDS011;57064;52.046;4.800;2023-05-10T14:55:56;10.60;;;5.43;;
69789;SDS011;57064;52.046;4.800;2023-05-10T14:58:22;9.30;;;4.78;;
69789;SDS011;57064;52.046;4.800;2023-05-10T15:00:48;8.95;;;5.45;;
69789;SDS011;57064;52.046;4.800;2023-05-10T15:03:14;8.77;;;5.22;;
69789;SDS011;57064;52.046;4.800;2023-05-10T15:05:40;11.52;;;5.97;;
69789;SDS011;57064;52.046;4.800;2023-05-10T15:08:07;9.70;;;4.95;;
69789;SDS011;57064;52.046;4.800;2023-05-10T15:10:35;10.68;;;6.07;;
69789;SDS011;57064;52.046;4.800;2023-05-10T15:13:03;9.57;;;5.03;;